sensor_id;sensor_type;location;lat;lon;timestamp;temperature;humidity
14741;DHT22;7462;53.530;9.414;2022-09-28T00:01:05;8.70;99.90
14741;DHT22;7462;53.530;9.414;2022-09-28T00:03:34;8.70;99.90
14741;DHT22;7462;53.530;9.414;2022-09-28T00:06:03;8.60;99.90
14741;DHT22;7462;53.530;9.414;2022-09-28T00:08:32;8.60;99.90
14741;DHT22;7462;53.530;9.414;2022-09-28T00:11:03;8.60;99.90
14741;DHT22;7462;53.530;9.414;2022-09-28T00:13:32;8.60;99.90
14741;DHT22;7462;53.530;9.414;2022-09-28T00:16:02;8.50;99.90
14741;DHT22;7462;53.530;9.414;2022-09-28T00:18:31;8.60;99.90
14741;DHT22;7462;53.530;9.414;2022-09-28T00:21:04;8.60;99.90
14741;DHT22;7462;53.530;9.414;2022-09-28T00:23:34;8.60;99.90
14741;DHT22;7462;53.530;9.414;2022-09-28T00:26:25;8.50;99.90
14741;DHT22;7462;53.530;9.414;2022-09-28T00:28:53;8.50;99.90
14741;DHT22;7462;53.530;9.414;2022-09-28T00:31:22;8.50;99.90
14741;DHT22;7462;53.530;9.414;2022-09-28T00:33:51;8.50;99.90
14741;DHT22;7462;53.530;9.414;2022-09-28T00:36:21;8.50;99.90
14741;DHT22;7462;53.530;9.414;2022-09-28T00:38:49;8.50;99.90
14741;DHT22;7462;53.530;9.414;2022-09-28T00:41:18;8.50;99.90
14741;DHT22;7462;53.530;9.414;2022-09-28T00:43:47;8.60;99.90
14741;DHT22;7462;53.530;9.414;2022-09-28T00:46:18;8.60;99.90
14741;DHT22;7462;53.530;9.414;2022-09-28T00:48:53;8.60;99.90
14741;DHT22;7462;53.530;9.414;2022-09-28T00:51:23;8.60;99.90
14741;DHT22;7462;53.530;9.414;2022-09-28T00:53:53;8.60;99.90
14741;DHT22;7462;53.530;9.414;2022-09-28T00:56:25;8.60;99.90
14741;DHT22;7462;53.530;9.414;2022-09-28T00:58:56;8.60;99.90
14741;DHT22;7462;53.530;9.414;2022-09-28T01:01:26;8.60;99.90
14741;DHT22;7462;53.530;9.414;2022-09-28T01:03:54;8.60;99.90
14741;DHT22;7462;53.530;9.414;2022-09-28T01:06:27;8.70;99.90
14741;DHT22;7462;53.530;9.414;2022-09-28T01:08:58;8.70;99.90
14741;DHT22;7462;53.530;9.414;2022-09-28T01:11:29;8.70;99.90
14741;DHT22;7462;53.530;9.414;2022-09-28T01:14:00;8.70;99.90
14741;DHT22;7462;53.530;9.414;2022-09-28T01:16:34;8.70;99.90
14741;DHT22;7462;53.530;9.414;2022-09-28T01:20:12;8.70;99.90
14741;DHT22;7462;53.530;9.414;2022-09-28T01:23:13;8.70;99.90
14741;DHT22;7462;53.530;9.414;2022-09-28T01:25:51;8.60;99.90
14741;DHT22;7462;53.530;9.414;2022-09-28T01:28:23;8.60;99.90
14741;DHT22;7462;53.530;9.414;2022-09-28T01:30:58;8.50;99.90
14741;DHT22;7462;53.530;9.414;2022-09-28T01:33:36;8.50;99.90
14741;DHT22;7462;53.530;9.414;2022-09-28T01:36:10;8.50;99.90
14741;DHT22;7462;53.530;9.414;2022-09-28T01:38:43;8.40;99.90
14741;DHT22;7462;53.530;9.414;2022-09-28T01:41:13;8.40;99.90
14741;DHT22;7462;53.530;9.414;2022-09-28T01:43:48;8.40;99.90
14741;DHT22;7462;53.530;9.414;2022-09-28T01:46:21;8.40;99.90
14741;DHT22;7462;53.530;9.414;2022-09-28T01:48:53;8.30;99.90
14741;DHT22;7462;53.530;9.414;2022-09-28T01:51:28;8.30;99.90
14741;DHT22;7462;53.530;9.414;2022-09-28T01:54:04;8.30;99.90
14741;DHT22;7462;53.530;9.414;2022-09-28T01:56:38;8.30;99.90
14741;DHT22;7462;53.530;9.414;2022-09-28T01:59:12;8.30;99.90
14741;DHT22;7462;53.530;9.414;2022-09-28T02:01:44;8.20;99.90
14741;DHT22;7462;53.530;9.414;2022-09-28T02:04:18;8.20;99.90
14741;DHT22;7462;53.530;9.414;2022-09-28T02:06:51;8.10;99.90
14741;DHT22;7462;53.530;9.414;2022-09-28T02:09:22;8.10;99.90
14741;DHT22;7462;53.530;9.414;2022-09-28T02:11:59;8.10;99.90
14741;DHT22;7462;53.530;9.414;2022-09-28T02:14:32;8.20;99.90
14741;DHT22;7462;53.530;9.414;2022-09-28T02:17:03;8.10;99.90
14741;DHT22;7462;53.530;9.414;2022-09-28T02:19:31;8.10;99.90
14741;DHT22;7462;53.530;9.414;2022-09-28T02:22:03;8.10;99.90
14741;DHT22;7462;53.530;9.414;2022-09-28T02:24:38;8.10;99.90
14741;DHT22;7462;53.530;9.414;2022-09-28T02:27:12;8.10;99.90
14741;DHT22;7462;53.530;9.414;2022-09-28T02:29:43;8.10;99.90
14741;DHT22;7462;53.530;9.414;2022-09-28T02:32:11;8.00;99.90
14741;DHT22;7462;53.530;9.414;2022-09-28T02:34:39;8.00;99.90
14741;DHT22;7462;53.530;9.414;2022-09-28T02:37:07;8.00;99.90
14741;DHT22;7462;53.530;9.414;2022-09-28T02:39:36;8.00;99.90
14741;DHT22;7462;53.530;9.414;2022-09-28T02:42:10;8.00;99.90
14741;DHT22;7462;53.530;9.414;2022-09-28T02:44:59;7.90;99.90
14741;DHT22;7462;53.530;9.414;2022-09-28T02:47:40;8.00;99.90
14741;DHT22;7462;53.530;9.414;2022-09-28T02:50:17;7.90;99.90
14741;DHT22;7462;53.530;9.414;2022-09-28T02:53:02;8.00;99.90
14741;DHT22;7462;53.530;9.414;2022-09-28T02:55:46;8.00;99.90
14741;DHT22;7462;53.530;9.414;2022-09-28T02:58:22;8.00;99.90
14741;DHT22;7462;53.530;9.414;2022-09-28T03:01:02;8.00;99.90
14741;DHT22;7462;53.530;9.414;2022-09-28T03:03:39;8.00;99.90
14741;DHT22;7462;53.530;9.414;2022-09-28T03:06:13;8.00;99.90
14741;DHT22;7462;53.530;9.414;2022-09-28T03:08:49;8.00;99.90
14741;DHT22;7462;53.530;9.414;2022-09-28T03:11:24;7.90;99.90
14741;DHT22;7462;53.530;9.414;2022-09-28T03:13:55;8.00;99.90
14741;DHT22;7462;53.530;9.414;2022-09-28T03:16:34;8.00;99.90
14741;DHT22;7462;53.530;9.414;2022-09-28T03:19:02;7.90;99.90
14741;DHT22;7462;53.530;9.414;2022-09-28T03:21:30;7.90;99.90
14741;DHT22;7462;53.530;9.414;2022-09-28T03:23:58;7.90;99.90
14741;DHT22;7462;53.530;9.414;2022-09-28T03:26:26;7.90;99.90
14741;DHT22;7462;53.530;9.414;2022-09-28T03:28:54;7.90;99.90
14741;DHT22;7462;53.530;9.414;2022-09-28T03:31:24;7.90;99.90
14741;DHT22;7462;53.530;9.414;2022-09-28T03:33:53;7.90;99.90
14741;DHT22;7462;53.530;9.414;2022-09-28T03:36:21;7.90;99.90
14741;DHT22;7462;53.530;9.414;2022-09-28T03:38:51;7.90;99.90
14741;DHT22;7462;53.530;9.414;2022-09-28T03:41:23;7.90;99.90
14741;DHT22;7462;53.530;9.414;2022-09-28T03:43:51;7.80;99.90
14741;DHT22;7462;53.530;9.414;2022-09-28T03:46:21;7.80;99.90
14741;DHT22;7462;53.530;9.414;2022-09-28T03:48:55;7.80;99.90
14741;DHT22;7462;53.530;9.414;2022-09-28T03:51:24;7.80;99.90
14741;DHT22;7462;53.530;9.414;2022-09-28T03:53:52;7.80;99.90
14741;DHT22;7462;53.530;9.414;2022-09-28T03:56:20;7.70;99.90
14741;DHT22;7462;53.530;9.414;2022-09-28T03:58:48;7.70;99.90
14741;DHT22;7462;53.530;9.414;2022-09-28T04:01:17;7.70;99.90
14741;DHT22;7462;53.530;9.414;2022-09-28T04:03:53;7.70;99.90
14741;DHT22;7462;53.530;9.414;2022-09-28T04:06:23;7.70;99.90
14741;DHT22;7462;53.530;9.414;2022-09-28T04:08:51;7.80;99.90
14741;DHT22;7462;53.530;9.414;2022-09-28T04:11:19;7.80;99.90
14741;DHT22;7462;53.530;9.414;2022-09-28T04:13:47;7.80;99.90
14741;DHT22;7462;53.530;9.414;2022-09-28T04:16:16;7.70;99.90
14741;DHT22;7462;53.530;9.414;2022-09-28T04:18:58;7.70;99.90
14741;DHT22;7462;53.530;9.414;2022-09-28T04:21:43;7.70;99.90
14741;DHT22;7462;53.530;9.414;2022-09-28T04:24:13;7.60;99.90
14741;DHT22;7462;53.530;9.414;2022-09-28T04:26:41;7.70;99.90
14741;DHT22;7462;53.530;9.414;2022-09-28T04:29:11;7.70;99.90
14741;DHT22;7462;53.530;9.414;2022-09-28T04:32:02;7.70;99.90
14741;DHT22;7462;53.530;9.414;2022-09-28T04:34:35;7.70;99.90
14741;DHT22;7462;53.530;9.414;2022-09-28T04:37:10;7.60;99.90
14741;DHT22;7462;53.530;9.414;2022-09-28T04:39:38;7.60;99.90
14741;DHT22;7462;53.530;9.414;2022-09-28T04:42:13;7.60;99.90
14741;DHT22;7462;53.530;9.414;2022-09-28T04:44:41;7.60;99.90
14741;DHT22;7462;53.530;9.414;2022-09-28T04:47:10;7.60;99.90
14741;DHT22;7462;53.530;9.414;2022-09-28T04:49:58;7.60;99.90
14741;DHT22;7462;53.530;9.414;2022-09-28T04:52:35;7.60;99.90
14741;DHT22;7462;53.530;9.414;2022-09-28T04:55:03;7.60;99.90
14741;DHT22;7462;53.530;9.414;2022-09-28T04:57:33;7.70;99.90
14741;DHT22;7462;53.530;9.414;2022-09-28T05:00:02;7.60;99.90
14741;DHT22;7462;53.530;9.414;2022-09-28T05:02:33;7.70;99.90
14741;DHT22;7462;53.530;9.414;2022-09-28T05:05:21;7.60;99.90
14741;DHT22;7462;53.530;9.414;2022-09-28T05:08:27;7.60;99.90
14741;DHT22;7462;53.530;9.414;2022-09-28T05:10:56;7.50;99.90
14741;DHT22;7462;53.530;9.414;2022-09-28T05:13:26;7.60;99.90
14741;DHT22;7462;53.530;9.414;2022-09-28T05:15:56;7.60;99.90
14741;DHT22;7462;53.530;9.414;2022-09-28T05:18:31;7.60;99.90
14741;DHT22;7462;53.530;9.414;2022-09-28T05:21:03;7.60;99.90
14741;DHT22;7462;53.530;9.414;2022-09-28T05:23:32;7.60;99.90
14741;DHT22;7462;53.530;9.414;2022-09-28T05:26:00;7.60;99.90
14741;DHT22;7462;53.530;9.414;2022-09-28T05:28:31;7.60;99.90
14741;DHT22;7462;53.530;9.414;2022-09-28T05:31:17;7.60;99.90
14741;DHT22;7462;53.530;9.414;2022-09-28T05:33:56;7.60;99.90
14741;DHT22;7462;53.530;9.414;2022-09-28T05:36:26;7.60;99.90
14741;DHT22;7462;53.530;9.414;2022-09-28T05:38:55;7.70;99.90
14741;DHT22;7462;53.530;9.414;2022-09-28T05:41:23;7.70;99.90
14741;DHT22;7462;53.530;9.414;2022-09-28T05:43:51;7.70;99.90
14741;DHT22;7462;53.530;9.414;2022-09-28T05:46:21;7.80;99.90
14741;DHT22;7462;53.530;9.414;2022-09-28T05:48:50;7.70;99.90
14741;DHT22;7462;53.530;9.414;2022-09-28T05:51:20;7.70;99.90
14741;DHT22;7462;53.530;9.414;2022-09-28T05:53:53;7.70;99.90
14741;DHT22;7462;53.530;9.414;2022-09-28T05:56:21;7.70;99.90
14741;DHT22;7462;53.530;9.414;2022-09-28T05:58:51;7.60;99.90
14741;DHT22;7462;53.530;9.414;2022-09-28T06:01:21;7.70;99.90
14741;DHT22;7462;53.530;9.414;2022-09-28T06:03:49;7.70;99.90
14741;DHT22;7462;53.530;9.414;2022-09-28T06:06:18;7.70;99.90
14741;DHT22;7462;53.530;9.414;2022-09-28T06:08:47;7.60;99.90
14741;DHT22;7462;53.530;9.414;2022-09-28T06:11:32;7.60;99.90
14741;DHT22;7462;53.530;9.414;2022-09-28T06:14:07;7.60;99.90
14741;DHT22;7462;53.530;9.414;2022-09-28T06:16:36;7.60;99.90
14741;DHT22;7462;53.530;9.414;2022-09-28T06:19:11;7.60;99.90
14741;DHT22;7462;53.530;9.414;2022-09-28T06:22:01;7.60;99.90
14741;DHT22;7462;53.530;9.414;2022-09-28T06:24:32;7.70;99.90
14741;DHT22;7462;53.530;9.414;2022-09-28T06:27:02;7.60;99.90
14741;DHT22;7462;53.530;9.414;2022-09-28T06:29:30;7.70;99.90
14741;DHT22;7462;53.530;9.414;2022-09-28T06:31:58;7.70;99.90
14741;DHT22;7462;53.530;9.414;2022-09-28T06:34:27;7.80;99.90
14741;DHT22;7462;53.530;9.414;2022-09-28T06:36:56;7.80;99.90
14741;DHT22;7462;53.530;9.414;2022-09-28T06:39:24;7.80;99.90
14741;DHT22;7462;53.530;9.414;2022-09-28T06:41:52;7.80;99.90
14741;DHT22;7462;53.530;9.414;2022-09-28T06:44:21;7.90;99.90
14741;DHT22;7462;53.530;9.414;2022-09-28T06:47:22;7.90;99.90
14741;DHT22;7462;53.530;9.414;2022-09-28T06:50:13;7.90;99.90
14741;DHT22;7462;53.530;9.414;2022-09-28T06:53:11;8.00;99.90
14741;DHT22;7462;53.530;9.414;2022-09-28T06:55:55;8.00;99.90
14741;DHT22;7462;53.530;9.414;2022-09-28T06:58:23;8.10;99.90
14741;DHT22;7462;53.530;9.414;2022-09-28T07:00:56;8.10;99.90
14741;DHT22;7462;53.530;9.414;2022-09-28T07:03:28;8.20;99.90
14741;DHT22;7462;53.530;9.414;2022-09-28T07:06:19;8.20;99.90
14741;DHT22;7462;53.530;9.414;2022-09-28T07:09:09;8.30;99.90
14741;DHT22;7462;53.530;9.414;2022-09-28T07:12:19;8.40;99.90
14741;DHT22;7462;53.530;9.414;2022-09-28T07:14:54;8.50;99.90
14741;DHT22;7462;53.530;9.414;2022-09-28T07:17:27;8.50;99.90
14741;DHT22;7462;53.530;9.414;2022-09-28T07:19:58;8.60;99.90
14741;DHT22;7462;53.530;9.414;2022-09-28T07:22:37;8.70;99.90
14741;DHT22;7462;53.530;9.414;2022-09-28T07:25:13;8.70;99.90
14741;DHT22;7462;53.530;9.414;2022-09-28T07:28:03;8.80;99.90
14741;DHT22;7462;53.530;9.414;2022-09-28T07:30:51;8.90;99.90
14741;DHT22;7462;53.530;9.414;2022-09-28T07:33:41;9.00;99.90
14741;DHT22;7462;53.530;9.414;2022-09-28T07:36:29;9.00;99.90
14741;DHT22;7462;53.530;9.414;2022-09-28T07:39:02;9.10;99.90
14741;DHT22;7462;53.530;9.414;2022-09-28T07:41:31;9.00;99.90
14741;DHT22;7462;53.530;9.414;2022-09-28T07:44:01;9.10;99.90
14741;DHT22;7462;53.530;9.414;2022-09-28T07:46:34;9.20;99.90
14741;DHT22;7462;53.530;9.414;2022-09-28T07:49:14;9.20;99.90
14741;DHT22;7462;53.530;9.414;2022-09-28T07:52:03;9.30;99.90
14741;DHT22;7462;53.530;9.414;2022-09-28T07:54:37;9.40;99.90
14741;DHT22;7462;53.530;9.414;2022-09-28T07:57:34;9.50;99.90
14741;DHT22;7462;53.530;9.414;2022-09-28T08:00:20;9.50;99.90
14741;DHT22;7462;53.530;9.414;2022-09-28T08:02:48;9.50;99.90
14741;DHT22;7462;53.530;9.414;2022-09-28T08:05:22;9.50;99.90
14741;DHT22;7462;53.530;9.414;2022-09-28T08:07:50;9.50;99.90
14741;DHT22;7462;53.530;9.414;2022-09-28T08:10:19;9.50;99.90
14741;DHT22;7462;53.530;9.414;2022-09-28T08:13:05;9.50;99.90
14741;DHT22;7462;53.530;9.414;2022-09-28T08:15:50;9.60;99.90
14741;DHT22;7462;53.530;9.414;2022-09-28T08:18:30;9.70;99.90
14741;DHT22;7462;53.530;9.414;2022-09-28T08:21:01;9.70;99.90
14741;DHT22;7462;53.530;9.414;2022-09-28T08:23:47;9.80;99.90
14741;DHT22;7462;53.530;9.414;2022-09-28T08:26:15;9.80;99.90
14741;DHT22;7462;53.530;9.414;2022-09-28T08:28:44;9.80;99.90
14741;DHT22;7462;53.530;9.414;2022-09-28T08:31:32;9.90;99.90
14741;DHT22;7462;53.530;9.414;2022-09-28T08:34:16;9.90;99.90
14741;DHT22;7462;53.530;9.414;2022-09-28T08:37:05;10.10;99.90
14741;DHT22;7462;53.530;9.414;2022-09-28T08:39:53;10.10;99.90
14741;DHT22;7462;53.530;9.414;2022-09-28T08:42:42;10.20;99.90
14741;DHT22;7462;53.530;9.414;2022-09-28T08:45:31;10.30;99.90
14741;DHT22;7462;53.530;9.414;2022-09-28T08:48:14;10.30;99.90
14741;DHT22;7462;53.530;9.414;2022-09-28T08:51:34;10.30;99.90
14741;DHT22;7462;53.530;9.414;2022-09-28T08:54:29;10.40;99.90
14741;DHT22;7462;53.530;9.414;2022-09-28T08:57:04;10.50;99.90
14741;DHT22;7462;53.530;9.414;2022-09-28T08:59:42;10.50;99.90
14741;DHT22;7462;53.530;9.414;2022-09-28T09:02:19;10.60;99.90
14741;DHT22;7462;53.530;9.414;2022-09-28T09:04:50;10.70;99.90
14741;DHT22;7462;53.530;9.414;2022-09-28T09:07:44;10.70;99.90
14741;DHT22;7462;53.530;9.414;2022-09-28T09:13:24;10.70;99.90
14741;DHT22;7462;53.530;9.414;2022-09-28T09:16:05;10.80;99.90
14741;DHT22;7462;53.530;9.414;2022-09-28T09:19:06;10.70;99.90
14741;DHT22;7462;53.530;9.414;2022-09-28T09:22:14;10.70;99.90
14741;DHT22;7462;53.530;9.414;2022-09-28T09:24:49;10.70;99.90
14741;DHT22;7462;53.530;9.414;2022-09-28T09:27:39;10.60;99.90
14741;DHT22;7462;53.530;9.414;2022-09-28T09:30:10;10.60;99.90
14741;DHT22;7462;53.530;9.414;2022-09-28T09:32:56;10.60;99.90
14741;DHT22;7462;53.530;9.414;2022-09-28T09:35:54;10.60;99.90
14741;DHT22;7462;53.530;9.414;2022-09-28T09:38:59;10.50;99.90
14741;DHT22;7462;53.530;9.414;2022-09-28T09:42:02;10.50;99.90
14741;DHT22;7462;53.530;9.414;2022-09-28T09:45:05;10.50;99.90
14741;DHT22;7462;53.530;9.414;2022-09-28T09:48:02;10.50;99.90
14741;DHT22;7462;53.530;9.414;2022-09-28T09:50:35;10.50;99.90
14741;DHT22;7462;53.530;9.414;2022-09-28T09:53:13;10.70;99.90
14741;DHT22;7462;53.530;9.414;2022-09-28T09:55:45;10.90;99.90
14741;DHT22;7462;53.530;9.414;2022-09-28T09:58:23;11.00;99.90
14741;DHT22;7462;53.530;9.414;2022-09-28T10:01:05;11.20;99.90
14741;DHT22;7462;53.530;9.414;2022-09-28T10:03:56;11.30;99.90
14741;DHT22;7462;53.530;9.414;2022-09-28T10:06:30;11.40;99.90
14741;DHT22;7462;53.530;9.414;2022-09-28T10:09:03;11.40;99.90
14741;DHT22;7462;53.530;9.414;2022-09-28T10:11:35;11.40;99.90
14741;DHT22;7462;53.530;9.414;2022-09-28T10:14:11;11.40;99.90
14741;DHT22;7462;53.530;9.414;2022-09-28T10:16:45;11.30;99.90
14741;DHT22;7462;53.530;9.414;2022-09-28T10:19:29;11.30;99.90
14741;DHT22;7462;53.530;9.414;2022-09-28T10:22:36;11.40;99.90
14741;DHT22;7462;53.530;9.414;2022-09-28T10:25:11;11.60;99.90
14741;DHT22;7462;53.530;9.414;2022-09-28T10:27:42;11.70;99.90
14741;DHT22;7462;53.530;9.414;2022-09-28T10:30:16;11.80;99.90
14741;DHT22;7462;53.530;9.414;2022-09-28T10:32:46;11.90;99.90
14741;DHT22;7462;53.530;9.414;2022-09-28T10:35:25;12.00;99.90
14741;DHT22;7462;53.530;9.414;2022-09-28T10:38:02;12.00;99.90
14741;DHT22;7462;53.530;9.414;2022-09-28T10:40:53;12.10;99.90
14741;DHT22;7462;53.530;9.414;2022-09-28T10:43:31;12.20;99.90
14741;DHT22;7462;53.530;9.414;2022-09-28T10:46:06;12.50;99.90
14741;DHT22;7462;53.530;9.414;2022-09-28T10:48:47;13.20;99.90
14741;DHT22;7462;53.530;9.414;2022-09-28T10:51:17;13.70;99.90
14741;DHT22;7462;53.530;9.414;2022-09-28T10:53:59;14.20;99.90
14741;DHT22;7462;53.530;9.414;2022-09-28T10:56:42;14.50;99.90
14741;DHT22;7462;53.530;9.414;2022-09-28T10:59:34;14.60;99.90
14741;DHT22;7462;53.530;9.414;2022-09-28T11:02:20;14.50;99.90
14741;DHT22;7462;53.530;9.414;2022-09-28T11:04:57;14.70;99.90
14741;DHT22;7462;53.530;9.414;2022-09-28T11:07:32;14.60;99.90
14741;DHT22;7462;53.530;9.414;2022-09-28T11:10:01;14.20;99.90
14741;DHT22;7462;53.530;9.414;2022-09-28T11:12:36;14.10;99.90
14741;DHT22;7462;53.530;9.414;2022-09-28T11:15:06;14.40;99.90
14741;DHT22;7462;53.530;9.414;2022-09-28T11:17:36;14.60;99.90
14741;DHT22;7462;53.530;9.414;2022-09-28T11:20:28;14.90;99.90
14741;DHT22;7462;53.530;9.414;2022-09-28T11:23:16;14.90;99.90
14741;DHT22;7462;53.530;9.414;2022-09-28T11:25:58;15.00;99.90
14741;DHT22;7462;53.530;9.414;2022-09-28T11:28:31;15.30;99.90
14741;DHT22;7462;53.530;9.414;2022-09-28T11:31:05;15.60;99.90
14741;DHT22;7462;53.530;9.414;2022-09-28T11:33:46;15.90;99.90
14741;DHT22;7462;53.530;9.414;2022-09-28T11:36:53;16.20;99.90
14741;DHT22;7462;53.530;9.414;2022-09-28T11:39:33;16.40;99.90
14741;DHT22;7462;53.530;9.414;2022-09-28T11:42:14;16.40;99.90
14741;DHT22;7462;53.530;9.414;2022-09-28T11:44:46;16.20;99.90
14741;DHT22;7462;53.530;9.414;2022-09-28T11:47:31;16.20;99.90
14741;DHT22;7462;53.530;9.414;2022-09-28T11:50:12;16.00;99.90
14741;DHT22;7462;53.530;9.414;2022-09-28T11:52:50;15.80;99.90
14741;DHT22;7462;53.530;9.414;2022-09-28T11:55:25;15.80;99.90
14741;DHT22;7462;53.530;9.414;2022-09-28T11:58:02;15.70;99.90
14741;DHT22;7462;53.530;9.414;2022-09-28T12:00:36;15.70;99.90
14741;DHT22;7462;53.530;9.414;2022-09-28T12:03:11;15.70;99.90
14741;DHT22;7462;53.530;9.414;2022-09-28T12:05:46;15.70;99.90
14741;DHT22;7462;53.530;9.414;2022-09-28T12:08:19;15.70;99.90
14741;DHT22;7462;53.530;9.414;2022-09-28T12:11:08;15.70;99.90
14741;DHT22;7462;53.530;9.414;2022-09-28T12:13:58;15.80;99.90
14741;DHT22;7462;53.530;9.414;2022-09-28T12:16:30;15.70;99.90
14741;DHT22;7462;53.530;9.414;2022-09-28T12:19:26;15.60;99.90
14741;DHT22;7462;53.530;9.414;2022-09-28T12:21:59;15.50;99.90
14741;DHT22;7462;53.530;9.414;2022-09-28T12:24:32;15.50;99.90
14741;DHT22;7462;53.530;9.414;2022-09-28T12:27:06;15.50;99.90
14741;DHT22;7462;53.530;9.414;2022-09-28T12:29:40;15.40;99.90
14741;DHT22;7462;53.530;9.414;2022-09-28T12:32:15;15.30;99.90
14741;DHT22;7462;53.530;9.414;2022-09-28T12:34:45;15.30;99.90
14741;DHT22;7462;53.530;9.414;2022-09-28T12:37:26;15.50;99.90
14741;DHT22;7462;53.530;9.414;2022-09-28T12:40:12;15.70;99.90
14741;DHT22;7462;53.530;9.414;2022-09-28T12:49:00;15.60;99.90
14741;DHT22;7462;53.530;9.414;2022-09-28T12:51:52;15.40;99.90
14741;DHT22;7462;53.530;9.414;2022-09-28T12:57:36;15.40;99.90
14741;DHT22;7462;53.530;9.414;2022-09-28T13:00:11;15.40;99.90
14741;DHT22;7462;53.530;9.414;2022-09-28T13:03:06;15.50;99.90
14741;DHT22;7462;53.530;9.414;2022-09-28T13:06:07;15.50;99.90
14741;DHT22;7462;53.530;9.414;2022-09-28T13:08:42;15.50;99.90
14741;DHT22;7462;53.530;9.414;2022-09-28T13:11:19;15.70;99.90
14741;DHT22;7462;53.530;9.414;2022-09-28T13:13:56;15.60;99.90
14741;DHT22;7462;53.530;9.414;2022-09-28T13:16:34;15.50;99.90
14741;DHT22;7462;53.530;9.414;2022-09-28T13:19:13;15.50;99.90
14741;DHT22;7462;53.530;9.414;2022-09-28T13:21:47;15.50;99.90
14741;DHT22;7462;53.530;9.414;2022-09-28T13:24:21;15.50;99.90
14741;DHT22;7462;53.530;9.414;2022-09-28T13:27:04;15.40;99.90
14741;DHT22;7462;53.530;9.414;2022-09-28T13:29:33;15.50;99.90
14741;DHT22;7462;53.530;9.414;2022-09-28T13:32:04;15.60;99.90
14741;DHT22;7462;53.530;9.414;2022-09-28T13:34:35;15.70;99.90
14741;DHT22;7462;53.530;9.414;2022-09-28T13:37:18;15.60;99.90
14741;DHT22;7462;53.530;9.414;2022-09-28T13:39:48;15.40;99.90
14741;DHT22;7462;53.530;9.414;2022-09-28T13:42:44;15.50;99.90
14741;DHT22;7462;53.530;9.414;2022-09-28T13:45:25;15.50;99.90
14741;DHT22;7462;53.530;9.414;2022-09-28T13:48:13;15.40;99.90
14741;DHT22;7462;53.530;9.414;2022-09-28T13:50:59;15.40;99.90
14741;DHT22;7462;53.530;9.414;2022-09-28T13:53:41;15.40;99.90
14741;DHT22;7462;53.530;9.414;2022-09-28T13:56:22;15.20;99.90
14741;DHT22;7462;53.530;9.414;2022-09-28T13:58:55;15.20;99.90
14741;DHT22;7462;53.530;9.414;2022-09-28T14:01:28;15.10;99.90
14741;DHT22;7462;53.530;9.414;2022-09-28T14:04:14;15.20;99.90
14741;DHT22;7462;53.530;9.414;2022-09-28T14:06:45;15.20;99.90
14741;DHT22;7462;53.530;9.414;2022-09-28T14:15:38;15.00;99.90
14741;DHT22;7462;53.530;9.414;2022-09-28T14:18:19;14.90;99.90
14741;DHT22;7462;53.530;9.414;2022-09-28T14:21:03;14.80;99.90
14741;DHT22;7462;53.530;9.414;2022-09-28T14:23:59;14.90;99.90
14741;DHT22;7462;53.530;9.414;2022-09-28T14:29:26;14.90;99.90
14741;DHT22;7462;53.530;9.414;2022-09-28T14:31:56;14.90;99.90
14741;DHT22;7462;53.530;9.414;2022-09-28T14:34:30;15.00;99.90
14741;DHT22;7462;53.530;9.414;2022-09-28T14:37:01;14.90;99.90
14741;DHT22;7462;53.530;9.414;2022-09-28T14:39:48;14.90;99.90
14741;DHT22;7462;53.530;9.414;2022-09-28T14:42:33;14.90;99.90
14741;DHT22;7462;53.530;9.414;2022-09-28T14:45:19;14.90;99.90
14741;DHT22;7462;53.530;9.414;2022-09-28T14:48:11;14.90;99.90
14741;DHT22;7462;53.530;9.414;2022-09-28T14:50:40;14.90;99.90
14741;DHT22;7462;53.530;9.414;2022-09-28T14:53:11;14.90;99.90
14741;DHT22;7462;53.530;9.414;2022-09-28T14:55:45;14.90;99.90
14741;DHT22;7462;53.530;9.414;2022-09-28T14:58:21;14.80;99.90
14741;DHT22;7462;53.530;9.414;2022-09-28T15:00:57;14.80;99.90
14741;DHT22;7462;53.530;9.414;2022-09-28T15:03:29;14.60;99.90
14741;DHT22;7462;53.530;9.414;2022-09-28T15:05:58;14.60;99.90
14741;DHT22;7462;53.530;9.414;2022-09-28T15:08:38;14.70;99.90
14741;DHT22;7462;53.530;9.414;2022-09-28T15:11:20;14.70;99.90
14741;DHT22;7462;53.530;9.414;2022-09-28T15:13:49;14.70;99.90
14741;DHT22;7462;53.530;9.414;2022-09-28T15:16:22;14.70;99.90
14741;DHT22;7462;53.530;9.414;2022-09-28T15:19:11;14.60;99.90
14741;DHT22;7462;53.530;9.414;2022-09-28T15:21:44;14.60;99.90
14741;DHT22;7462;53.530;9.414;2022-09-28T15:24:30;14.60;99.90
14741;DHT22;7462;53.530;9.414;2022-09-28T15:26:59;14.50;99.90
14741;DHT22;7462;53.530;9.414;2022-09-28T15:29:29;14.50;99.90
14741;DHT22;7462;53.530;9.414;2022-09-28T15:31:59;14.50;99.90
14741;DHT22;7462;53.530;9.414;2022-09-28T15:34:31;14.50;99.90
14741;DHT22;7462;53.530;9.414;2022-09-28T15:37:19;14.60;99.90
14741;DHT22;7462;53.530;9.414;2022-09-28T15:39:51;14.50;99.90
14741;DHT22;7462;53.530;9.414;2022-09-28T15:42:20;14.50;99.90
14741;DHT22;7462;53.530;9.414;2022-09-28T15:45:18;14.50;99.90
14741;DHT22;7462;53.530;9.414;2022-09-28T15:47:51;14.40;99.90
14741;DHT22;7462;53.530;9.414;2022-09-28T15:50:25;14.40;99.90
14741;DHT22;7462;53.530;9.414;2022-09-28T15:52:56;14.40;99.90
14741;DHT22;7462;53.530;9.414;2022-09-28T15:55:30;14.30;99.90
14741;DHT22;7462;53.530;9.414;2022-09-28T15:58:12;14.30;99.90
14741;DHT22;7462;53.530;9.414;2022-09-28T16:00:43;14.10;99.90
14741;DHT22;7462;53.530;9.414;2022-09-28T16:03:22;14.00;99.90
14741;DHT22;7462;53.530;9.414;2022-09-28T16:06:05;14.00;99.90
14741;DHT22;7462;53.530;9.414;2022-09-28T16:08:39;13.90;99.90
14741;DHT22;7462;53.530;9.414;2022-09-28T16:11:13;13.80;99.90
14741;DHT22;7462;53.530;9.414;2022-09-28T16:13:59;13.70;99.90
14741;DHT22;7462;53.530;9.414;2022-09-28T16:16:34;13.60;99.90
14741;DHT22;7462;53.530;9.414;2022-09-28T16:19:20;13.50;99.90
14741;DHT22;7462;53.530;9.414;2022-09-28T16:21:51;13.50;99.90
14741;DHT22;7462;53.530;9.414;2022-09-28T16:24:22;13.40;99.90
14741;DHT22;7462;53.530;9.414;2022-09-28T16:26:58;13.30;99.90
14741;DHT22;7462;53.530;9.414;2022-09-28T16:29:33;13.30;99.90
14741;DHT22;7462;53.530;9.414;2022-09-28T16:32:31;13.30;99.90
14741;DHT22;7462;53.530;9.414;2022-09-28T16:35:19;13.20;99.90
14741;DHT22;7462;53.530;9.414;2022-09-28T16:37:57;13.10;99.90
14741;DHT22;7462;53.530;9.414;2022-09-28T16:40:26;13.00;99.90
14741;DHT22;7462;53.530;9.414;2022-09-28T16:42:58;13.00;99.90
14741;DHT22;7462;53.530;9.414;2022-09-28T16:45:28;12.90;99.90
14741;DHT22;7462;53.530;9.414;2022-09-28T16:47:56;12.80;99.90
14741;DHT22;7462;53.530;9.414;2022-09-28T16:50:25;12.80;99.90
14741;DHT22;7462;53.530;9.414;2022-09-28T16:52:58;12.80;99.90
14741;DHT22;7462;53.530;9.414;2022-09-28T16:55:45;12.70;99.90
14741;DHT22;7462;53.530;9.414;2022-09-28T16:58:16;12.60;99.90
14741;DHT22;7462;53.530;9.414;2022-09-28T17:00:44;12.60;99.90
14741;DHT22;7462;53.530;9.414;2022-09-28T17:03:14;12.60;99.90
14741;DHT22;7462;53.530;9.414;2022-09-28T17:05:45;12.50;99.90
14741;DHT22;7462;53.530;9.414;2022-09-28T17:08:15;12.40;99.90
14741;DHT22;7462;53.530;9.414;2022-09-28T17:10:49;12.40;99.90
14741;DHT22;7462;53.530;9.414;2022-09-28T17:13:40;12.30;99.90
14741;DHT22;7462;53.530;9.414;2022-09-28T17:16:11;12.10;99.90
14741;DHT22;7462;53.530;9.414;2022-09-28T17:18:40;12.10;99.90